createdAt,value
2022-08-03T00:01:49.356Z,94458.50
2022-08-03T00:04:16.352Z,94470.13
2022-08-03T00:06:43.001Z,94458.16
2022-08-03T00:09:10.128Z,94468.38
2022-08-03T00:11:37.169Z,94460.84
2022-08-03T00:14:07.154Z,94466.25
2022-08-03T00:16:34.183Z,94461.59
2022-08-03T00:19:01.489Z,94459.94
2022-08-03T00:21:28.817Z,94464.47
2022-08-03T00:23:55.688Z,94461.38
2022-08-03T00:26:22.518Z,94458.31
2022-08-03T00:28:50.041Z,94445.63
2022-08-03T00:31:22.258Z,94455.09
2022-08-03T00:34:04.205Z,94454.94
2022-08-03T00:36:30.976Z,94445.59
2022-08-03T00:38:57.593Z,94453.19
2022-08-03T00:41:24.337Z,94451.22
2022-08-03T00:43:51.160Z,94439.78
2022-08-03T00:46:21.793Z,94445.06
2022-08-03T00:48:50.508Z,94447.59
2022-08-03T00:51:18.033Z,94449.81
2022-08-03T00:53:45.768Z,94454.31
2022-08-03T00:56:16.958Z,94450.94
2022-08-03T00:58:45.329Z,94449.69
2022-08-03T01:01:12.771Z,94450.03
2022-08-03T01:03:39.930Z,94446.63
2022-08-03T01:06:18.506Z,94445.13
2022-08-03T01:08:45.027Z,94447.28
2022-08-03T01:11:32.292Z,94448.84
2022-08-03T01:14:18.949Z,94451.06
2022-08-03T01:16:57.006Z,94444.56
2022-08-03T01:19:35.461Z,94441.81
2022-08-03T01:22:11.020Z,94444.91
2022-08-03T01:25:05.387Z,94434.34
2022-08-03T01:27:44.199Z,94432.78
2022-08-03T01:30:12.581Z,94432.13
2022-08-03T01:33:00.804Z,94438.94
2022-08-03T01:35:38.536Z,94443.34
2022-08-03T01:38:22.283Z,94429.63
2022-08-03T01:40:53.961Z,94430.63
2022-08-03T01:44:27.005Z,94429.84
2022-08-03T01:46:15.838Z,94428.22
2022-08-03T01:48:44.681Z,94422.50
2022-08-03T01:51:12.360Z,94406.25
2022-08-03T01:53:42.848Z,94427.25
2022-08-03T01:56:10.812Z,94424.06
2022-08-03T01:58:39.699Z,94429.91
2022-08-03T02:01:09.063Z,94418.38
2022-08-03T02:03:58.064Z,94423.97
2022-08-03T02:07:02.231Z,94427.56
2022-08-03T02:09:19.921Z,94426.25
2022-08-03T02:11:47.564Z,94417.06
2022-08-03T02:14:16.044Z,94418.13
2022-08-03T02:16:44.730Z,94413.94
2022-08-03T02:19:11.967Z,94422.22
2022-08-03T02:21:56.829Z,94408.91
2022-08-03T02:24:26.546Z,94416.16
2022-08-03T02:26:56.339Z,94408.47
2022-08-03T02:29:39.349Z,94416.81
2022-08-03T02:32:12.607Z,94414.19
2022-08-03T02:34:42.411Z,94404.28
2022-08-03T02:37:10.488Z,94416.16
2022-08-03T02:39:39.819Z,94410.47
2022-08-03T02:42:09.548Z,94409.56
2022-08-03T02:44:40.434Z,94417.91
2022-08-03T02:47:10.940Z,94407.34
2022-08-03T02:49:50.962Z,94408.47
2022-08-03T02:52:21.611Z,94411.22
2022-08-03T02:54:51.218Z,94399.03
2022-08-03T02:57:21.010Z,94399.91
2022-08-03T02:59:47.777Z,94406.94
2022-08-03T03:02:16.765Z,94405.38
2022-08-03T03:05:51.792Z,94402.53
2022-08-03T03:07:35.368Z,94403.09
2022-08-03T03:10:22.053Z,94400.25
2022-08-03T03:12:51.800Z,94396.84
2022-08-03T03:15:18.966Z,94396.41
2022-08-03T03:17:46.076Z,94401.69
2022-08-03T03:20:29.741Z,94397.28
2022-08-03T03:23:00.112Z,94405.94
2022-08-03T03:25:28.160Z,94407.81
2022-08-03T03:27:54.922Z,94391.13
2022-08-03T03:30:25.048Z,94403.00
2022-08-03T03:32:52.639Z,94407.38
2022-08-03T03:35:19.784Z,94404.28
2022-08-03T03:37:46.427Z,94406.50
2022-08-03T03:40:14.449Z,94408.13
2022-08-03T03:42:41.297Z,94410.47
2022-08-03T03:45:08.855Z,94413.97
2022-08-03T03:47:36.103Z,94403.75
2022-08-03T03:50:04.648Z,94413.75
2022-08-03T03:52:32.529Z,94409.34
2022-08-03T03:55:01.302Z,94412.66
2022-08-03T03:57:28.766Z,94402.28
2022-08-03T03:59:55.348Z,94405.94
2022-08-03T04:02:21.971Z,94410.44
2022-08-03T04:05:07.138Z,94398.56
2022-08-03T04:08:05.017Z,94403.31
2022-08-03T04:10:52.853Z,94405.94
2022-08-03T04:13:21.974Z,94413.38
2022-08-03T04:15:50.580Z,94418.22
2022-08-03T04:18:19.087Z,94406.69
2022-08-03T04:20:48.813Z,94407.03
2022-08-03T04:23:21.109Z,94424.28
2022-08-03T04:25:49.972Z,94416.69
2022-08-03T04:28:30.530Z,94423.84
2022-08-03T04:30:58.993Z,94417.91
2022-08-03T04:33:29.444Z,94422.00
2022-08-03T04:36:01.526Z,94412.88
2022-08-03T04:38:35.445Z,94424.53
2022-08-03T04:41:02.378Z,94422.53
2022-08-03T04:43:31.240Z,94416.59
2022-08-03T04:45:59.321Z,94420.75
2022-08-03T04:48:26.551Z,94420.88
2022-08-03T04:50:54.553Z,94423.22
2022-08-03T04:53:21.354Z,94423.66
2022-08-03T04:55:48.356Z,94426.91
2022-08-03T04:58:15.082Z,94420.75
2022-08-03T05:00:42.315Z,94431.34
2022-08-03T05:03:19.612Z,94429.78
2022-08-03T05:05:52.361Z,94427.13
2022-08-03T05:08:20.661Z,94436.88
2022-08-03T05:10:55.637Z,94427.38
2022-08-03T05:13:25.760Z,94432.53
2022-08-03T05:15:52.605Z,94430.53
2022-08-03T05:18:19.301Z,94432.91
2022-08-03T05:20:45.946Z,94438.47
2022-08-03T05:23:12.590Z,94437.28
2022-08-03T05:25:39.367Z,94446.69
2022-08-03T05:28:06.090Z,94439.03
2022-08-03T05:30:33.797Z,94431.59
2022-08-03T05:33:02.438Z,94440.75
2022-08-03T05:36:02.676Z,94433.41
2022-08-03T05:38:24.306Z,94441.00
2022-08-03T05:40:57.460Z,94423.88
2022-08-03T05:43:43.390Z,94442.13
2022-08-03T05:46:13.013Z,94440.91
2022-08-03T05:48:41.326Z,94433.63
2022-08-03T05:51:11.710Z,94433.59
2022-08-03T05:53:42.290Z,94436.44
2022-08-03T05:56:15.361Z,94444.78
2022-08-03T05:58:47.128Z,94447.00
2022-08-03T06:01:15.310Z,94436.59
2022-08-03T06:03:42.059Z,94442.16
2022-08-03T06:06:08.846Z,94448.81
2022-08-03T06:08:35.495Z,94434.16
2022-08-03T06:11:02.176Z,94442.00
2022-08-03T06:13:28.807Z,94439.13
2022-08-03T06:15:55.363Z,94453.34
2022-08-03T06:18:21.984Z,94451.63
2022-08-03T06:20:49.468Z,94449.47
2022-08-03T06:23:18.523Z,94453.44
2022-08-03T06:25:45.457Z,94450.53
2022-08-03T06:28:42.567Z,94461.69
2022-08-03T06:31:01.187Z,94450.06
2022-08-03T06:34:31.010Z,94450.22
2022-08-03T06:36:15.173Z,94454.13
2022-08-03T06:38:41.782Z,94452.75
2022-08-03T06:41:08.487Z,94453.22
2022-08-03T06:43:37.643Z,94454.47
2022-08-03T06:46:05.581Z,94441.63
2022-08-03T06:48:32.552Z,94456.53
2022-08-03T06:50:59.395Z,94458.16
2022-08-03T06:53:26.319Z,94454.06
2022-08-03T06:55:55.011Z,94457.22
2022-08-03T06:58:22.550Z,94465.28
2022-08-03T07:00:49.401Z,94469.53
2022-08-03T07:03:16.395Z,94464.28
2022-08-03T07:05:46.725Z,94470.41
2022-08-03T07:08:14.417Z,94470.06
2022-08-03T07:10:40.994Z,94470.50
2022-08-03T07:13:07.712Z,94473.28
2022-08-03T07:15:54.116Z,94471.44
2022-08-03T07:18:27.636Z,94467.78
2022-08-03T07:20:57.757Z,94473.22
2022-08-03T07:23:25.532Z,94467.53
2022-08-03T07:25:52.250Z,94472.53
2022-08-03T07:28:19.022Z,94471.44
2022-08-03T07:30:45.661Z,94467.72
2022-08-03T07:33:12.282Z,94470.44
2022-08-03T07:35:39.307Z,94468.97
2022-08-03T07:38:05.968Z,94458.34
2022-08-03T07:40:32.594Z,94461.41
2022-08-03T07:42:59.855Z,94467.91
2022-08-03T07:45:26.759Z,94466.09
2022-08-03T07:47:54.223Z,94465.00
2022-08-03T07:50:22.048Z,94464.66
2022-08-03T07:52:50.358Z,94463.91
2022-08-03T07:55:19.529Z,94470.44
2022-08-03T07:57:46.316Z,94460.94
2022-08-03T08:00:16.979Z,94468.59
2022-08-03T08:02:44.514Z,94466.31
2022-08-03T08:05:12.598Z,94467.47
2022-08-03T08:07:39.789Z,94470.56
2022-08-03T08:10:08.412Z,94462.25
2022-08-03T08:12:35.063Z,94458.88
2022-08-03T08:15:02.157Z,94459.63
2022-08-03T08:17:28.816Z,94461.19
2022-08-03T08:19:55.448Z,94458.94
2022-08-03T08:22:29.917Z,94457.06
2022-08-03T08:24:58.541Z,94464.31
2022-08-03T08:27:25.917Z,94461.28
2022-08-03T08:29:56.364Z,94468.19
2022-08-03T08:32:25.624Z,94460.56
2022-08-03T08:34:52.226Z,94462.84
2022-08-03T08:37:18.798Z,94460.56
2022-08-03T08:39:45.374Z,94464.00
2022-08-03T08:42:12.177Z,94457.16
2022-08-03T08:44:39.293Z,94458.25
2022-08-03T08:47:08.119Z,94458.66
2022-08-03T08:49:39.201Z,94464.78
2022-08-03T08:52:25.286Z,94457.91
2022-08-03T08:55:05.215Z,94459.03
2022-08-03T08:57:44.327Z,94465.16
2022-08-03T09:00:14.957Z,94456.38
2022-08-03T09:02:43.192Z,94457.50
2022-08-03T09:05:16.137Z,94462.44
2022-08-03T09:07:44.205Z,94461.31
2022-08-03T09:10:13.790Z,94454.00
2022-08-03T09:12:46.009Z,94464.69
2022-08-03T09:15:28.613Z,94464.28
2022-08-03T09:17:57.012Z,94470.72
2022-08-03T09:20:25.649Z,94468.72
2022-08-03T09:23:51.914Z,94468.63
2022-08-03T09:25:59.988Z,94464.06
2022-08-03T09:28:57.226Z,94465.94
2022-08-03T09:31:43.645Z,94468.25
2022-08-03T09:34:12.738Z,94461.34
2022-08-03T09:36:40.769Z,94466.66
2022-08-03T09:39:11.391Z,94454.75
2022-08-03T09:41:47.380Z,94457.78
2022-08-03T09:44:24.567Z,94456.56
2022-08-03T09:46:56.612Z,94456.16
2022-08-03T09:49:24.386Z,94464.09
2022-08-03T09:52:31.765Z,94460.94
2022-08-03T09:54:38.752Z,94462.88
2022-08-03T09:57:05.428Z,94454.38
2022-08-03T09:59:33.727Z,94458.19
2022-08-03T10:02:00.881Z,94451.19
2022-08-03T10:04:27.614Z,94458.03
2022-08-03T10:07:10.821Z,94454.47
2022-08-03T10:09:38.118Z,94459.31
2022-08-03T10:12:12.731Z,94453.09
2022-08-03T10:14:41.981Z,94453.03
2022-08-03T10:17:09.778Z,94450.31
2022-08-03T10:19:36.615Z,94453.34
2022-08-03T10:22:29.744Z,94450.19
2022-08-03T10:25:02.558Z,94450.94
2022-08-03T10:27:34.306Z,94439.66
2022-08-03T10:30:05.466Z,94445.38
2022-08-03T10:32:38.321Z,94439.50
2022-08-03T10:35:20.971Z,94440.09
2022-08-03T10:38:10.435Z,94447.69
2022-08-03T10:40:58.676Z,94438.00
2022-08-03T10:43:49.194Z,94439.06
2022-08-03T10:46:19.512Z,94429.38
2022-08-03T10:48:48.669Z,94429.94
2022-08-03T10:51:16.170Z,94421.00
2022-08-03T10:53:54.986Z,94426.69
2022-08-03T10:56:54.254Z,94424.50
2022-08-03T10:59:46.161Z,94423.78
2022-08-03T11:02:15.774Z,94413.25
2022-08-03T11:04:42.906Z,94413.72
2022-08-03T11:07:25.704Z,94418.41
2022-08-03T11:09:54.404Z,94417.81
2022-08-03T11:12:30.194Z,94417.38
2022-08-03T11:15:04.571Z,94422.09
2022-08-03T11:17:33.985Z,94415.31
2022-08-03T11:20:13.653Z,94423.47
2022-08-03T11:22:54.598Z,94424.44
2022-08-03T11:25:54.054Z,94411.22
2022-08-03T11:28:28.924Z,94411.41
2022-08-03T11:30:55.626Z,94413.31
2022-08-03T11:33:31.850Z,94409.22
2022-08-03T11:36:00.533Z,94421.63
2022-08-03T11:38:27.181Z,94412.25
2022-08-03T11:40:54.539Z,94410.75
2022-08-03T11:43:31.337Z,94414.69
2022-08-03T11:46:06.982Z,94415.06
2022-08-03T11:48:45.414Z,94417.06
2022-08-03T11:51:20.845Z,94411.78
2022-08-03T11:53:51.118Z,94407.13
2022-08-03T11:56:17.713Z,94410.91
2022-08-03T11:59:10.730Z,94399.03
2022-08-03T12:01:36.233Z,94402.88
2022-08-03T12:04:04.922Z,94402.75
2022-08-03T12:06:31.572Z,94397.59
2022-08-03T12:08:58.162Z,94391.66
2022-08-03T12:11:24.785Z,94395.44
2022-08-03T12:14:36.755Z,94393.59
2022-08-03T12:16:38.144Z,94396.69
2022-08-03T12:19:06.899Z,94391.75
2022-08-03T12:21:33.720Z,94385.41
2022-08-03T12:24:04.662Z,94384.38
2022-08-03T12:26:54.519Z,94391.44
2022-08-03T12:29:26.317Z,94385.72
2022-08-03T12:31:53.233Z,94382.13
2022-08-03T12:34:19.814Z,94383.66
2022-08-03T12:36:54.479Z,94379.00
2022-08-03T12:39:27.573Z,94370.69
2022-08-03T12:41:55.358Z,94378.59
2022-08-03T12:44:32.669Z,94379.66
2022-08-03T12:47:00.366Z,94372.63
2022-08-03T12:49:28.277Z,94371.66
2022-08-03T12:51:54.937Z,94371.56
2022-08-03T12:54:26.510Z,94379.13
2022-08-03T12:56:59.547Z,94374.16
2022-08-03T12:59:35.457Z,94375.88
2022-08-03T13:02:16.274Z,94367.22
2022-08-03T13:04:46.362Z,94369.38
2022-08-03T13:07:14.457Z,94368.59
2022-08-03T13:09:55.289Z,94363.25
2022-08-03T13:12:24.597Z,94363.25
2022-08-03T13:14:55.065Z,94358.53
2022-08-03T13:17:21.995Z,94367.09
2022-08-03T13:19:49.752Z,94361.47
2022-08-03T13:22:20.152Z,94358.75
2022-08-03T13:24:47.503Z,94351.81
2022-08-03T13:28:01.432Z,94355.19
2022-08-03T13:30:01.582Z,94351.53
2022-08-03T13:32:28.233Z,94350.94
2022-08-03T13:34:54.798Z,94345.28
2022-08-03T13:37:21.744Z,94356.53
2022-08-03T13:39:59.386Z,94350.91
2022-08-03T13:42:32.143Z,94348.84
2022-08-03T13:44:59.967Z,94347.38
2022-08-03T13:47:27.567Z,94344.06
2022-08-03T13:50:00.802Z,94338.16
2022-08-03T13:52:33.762Z,94339.53
2022-08-03T13:55:01.492Z,94340.00
2022-08-03T13:58:04.252Z,94335.69
2022-08-03T14:00:28.232Z,94340.22
2022-08-03T14:03:06.664Z,94330.59
2022-08-03T14:05:38.252Z,94328.41
2022-08-03T14:08:06.842Z,94331.28
2022-08-03T14:10:38.487Z,94325.84
2022-08-03T14:13:05.953Z,94340.25
2022-08-03T14:15:37.488Z,94329.66
2022-08-03T14:18:12.852Z,94317.25
2022-08-03T14:20:49.125Z,94334.50
2022-08-03T14:23:18.969Z,94323.06
2022-08-03T14:25:50.233Z,94327.28
2022-08-03T14:28:18.829Z,94321.28
2022-08-03T14:30:45.711Z,94316.47
2022-08-03T14:33:12.342Z,94321.50
2022-08-03T14:35:38.938Z,94321.50
2022-08-03T14:38:05.699Z,94315.91
2022-08-03T14:40:32.538Z,94317.72
2022-08-03T14:42:59.203Z,94310.94
2022-08-03T14:45:25.787Z,94300.81
2022-08-03T14:50:10.403Z,94307.91
2022-08-03T14:50:43.256Z,94300.00
2022-08-03T14:53:12.448Z,94300.00
2022-08-03T14:55:50.847Z,94303.09
2022-08-03T14:58:21.133Z,94301.31
2022-08-03T15:00:49.545Z,94292.63
2022-08-03T15:03:20.374Z,94294.50
2022-08-03T15:05:47.278Z,94295.97
2022-08-03T15:08:13.905Z,94295.38
2022-08-03T15:10:45.461Z,94289.81
2022-08-03T15:13:13.604Z,94290.75
2022-08-03T15:15:41.147Z,94289.69
2022-08-03T15:18:07.985Z,94283.66
2022-08-03T15:20:50.157Z,94290.16
2022-08-03T15:23:17.359Z,94274.28
2022-08-03T15:26:27.884Z,94286.97
2022-08-03T15:28:32.301Z,94277.59
2022-08-03T15:30:58.952Z,94281.34
2022-08-03T15:33:25.617Z,94276.66
2022-08-03T15:35:53.089Z,94276.66
2022-08-03T15:38:22.982Z,94277.28
2022-08-03T15:40:54.675Z,94269.03
2022-08-03T15:43:22.779Z,94271.38
2022-08-03T15:45:54.579Z,94269.44
2022-08-03T15:48:36.380Z,94270.91
2022-08-03T15:51:04.025Z,94265.47
2022-08-03T15:53:30.721Z,94274.78
2022-08-03T15:55:57.348Z,94273.00
2022-08-03T15:59:03.204Z,94263.94
2022-08-03T16:01:14.349Z,94263.03
2022-08-03T16:03:44.360Z,94253.41
2022-08-03T16:06:11.142Z,94262.84
2022-08-03T16:08:37.747Z,94259.41
2022-08-03T16:11:04.513Z,94255.94
2022-08-03T16:14:13.460Z,94259.88
2022-08-03T16:16:17.704Z,94257.34
2022-08-03T16:18:44.279Z,94260.19
2022-08-03T16:21:10.938Z,94251.28
2022-08-03T16:23:47.097Z,94256.38
2022-08-03T16:26:14.625Z,94252.47
2022-08-03T16:28:41.501Z,94250.66
2022-08-03T16:31:09.168Z,94244.63
2022-08-03T16:33:36.249Z,94244.03
2022-08-03T16:36:03.552Z,94243.63
2022-08-03T16:38:30.575Z,94251.72
2022-08-03T16:40:57.253Z,94244.31
2022-08-03T16:43:24.667Z,94246.09
2022-08-03T16:45:51.667Z,94245.03
2022-08-03T16:48:18.790Z,94252.66
2022-08-03T16:50:46.107Z,94238.00
2022-08-03T16:53:16.788Z,94249.13
2022-08-03T16:55:52.372Z,94243.09
2022-08-03T16:58:41.359Z,94235.84
2022-08-03T17:01:22.177Z,94239.59
2022-08-03T17:04:03.096Z,94239.97
2022-08-03T17:06:34.529Z,94238.56
2022-08-03T17:09:03.587Z,94240.22
2022-08-03T17:11:35.197Z,94237.78
2022-08-03T17:14:07.768Z,94238.97
2022-08-03T17:16:36.249Z,94233.56
2022-08-03T17:19:06.726Z,94245.25
2022-08-03T17:21:37.710Z,94245.56
2022-08-03T17:24:19.787Z,94244.38
2022-08-03T17:26:50.077Z,94242.84
2022-08-03T17:29:22.946Z,94248.06
2022-08-03T17:31:53.074Z,94248.19
2022-08-03T17:34:20.828Z,94243.84
2022-08-03T17:37:12.031Z,94248.41
2022-08-03T17:39:59.829Z,94246.22
2022-08-03T17:42:31.163Z,94245.56
2022-08-03T17:45:02.585Z,94249.91
2022-08-03T17:47:41.149Z,94251.00
2022-08-03T17:50:25.050Z,94254.72
2022-08-03T17:53:07.223Z,94243.19
2022-08-03T17:55:55.777Z,94247.44
2022-08-03T17:58:39.616Z,94249.16
2022-08-03T18:02:00.846Z,94253.16
2022-08-03T18:04:21.671Z,94257.44
2022-08-03T18:06:58.559Z,94260.59
2022-08-03T18:10:03.668Z,94244.06
2022-08-03T18:12:26.664Z,94262.38
2022-08-03T18:15:08.388Z,94268.34
2022-08-03T18:17:55.178Z,94262.38
2022-08-03T18:20:34.627Z,94262.66
2022-08-03T18:23:05.870Z,94267.97
2022-08-03T18:25:44.873Z,94269.09
2022-08-03T18:28:18.902Z,94264.31
2022-08-03T18:30:53.471Z,94274.50
2022-08-03T18:34:19.088Z,94263.91
2022-08-03T18:36:21.549Z,94270.78
2022-08-03T18:38:53.911Z,94263.00
2022-08-03T18:41:32.335Z,94268.06
2022-08-03T18:44:08.104Z,94269.66
2022-08-03T18:46:52.233Z,94264.72
2022-08-03T18:49:25.558Z,94263.84
2022-08-03T18:52:17.958Z,94264.19
2022-08-03T18:55:02.490Z,94266.72
2022-08-03T18:57:46.601Z,94274.19
2022-08-03T19:00:24.552Z,94264.94
2022-08-03T19:03:20.160Z,94266.97
2022-08-03T19:06:15.936Z,94264.78
2022-08-03T19:08:54.227Z,94276.41
2022-08-03T19:12:11.184Z,94262.03
2022-08-03T19:14:28.765Z,94267.84
2022-08-03T19:17:08.589Z,94281.31
2022-08-03T19:19:44.187Z,94284.84
2022-08-03T19:22:15.818Z,94282.59
2022-08-03T19:25:02.329Z,94282.69
2022-08-03T19:27:31.210Z,94283.91
2022-08-03T19:30:06.893Z,94280.56
2022-08-03T19:32:40.991Z,94288.28
2022-08-03T19:35:18.980Z,94291.03
2022-08-03T19:37:46.599Z,94288.41
2022-08-03T19:40:13.168Z,94292.69
2022-08-03T19:42:44.570Z,94289.66
2022-08-03T19:45:14.103Z,94289.38
2022-08-03T19:47:56.519Z,94293.66
2022-08-03T19:50:24.476Z,94293.69
2022-08-03T19:52:52.875Z,94295.63
2022-08-03T19:55:19.885Z,94289.56
2022-08-03T19:57:49.267Z,94291.84
2022-08-03T20:00:38.255Z,94290.34
2022-08-03T20:03:06.666Z,94291.16
2022-08-03T20:05:52.263Z,94290.38
2022-08-03T20:08:21.879Z,94288.06
2022-08-03T20:10:49.342Z,94291.13
2022-08-03T20:13:20.049Z,94283.53
2022-08-03T20:15:46.922Z,94284.31
2022-08-03T20:18:16.854Z,94288.09
2022-08-03T20:20:48.023Z,94286.56
2022-08-03T20:23:18.596Z,94285.84
2022-08-03T20:25:57.280Z,94285.44
2022-08-03T20:28:50.519Z,94278.97
2022-08-03T20:31:19.279Z,94287.34
2022-08-03T20:33:49.288Z,94283.53
2022-08-03T20:36:18.114Z,94278.16
2022-08-03T20:38:47.700Z,94278.91
2022-08-03T20:41:16.249Z,94277.75
2022-08-03T20:43:43.345Z,94277.38
2022-08-03T20:46:33.846Z,94275.47
2022-08-03T20:51:53.182Z,94268.94
2022-08-03T20:54:30.853Z,94271.22
2022-08-03T20:57:03.589Z,94278.06
2022-08-03T20:59:47.333Z,94280.31
2022-08-03T21:02:19.838Z,94282.91
2022-08-03T21:04:56.144Z,94277.53
2022-08-03T21:07:24.442Z,94274.47
2022-08-03T21:10:15.364Z,94279.72
2022-08-03T21:13:04.521Z,94273.22
2022-08-03T21:13:13.135Z,94265.94
2022-08-03T21:16:02.401Z,94275.44
2022-08-03T21:18:32.264Z,94269.69
2022-08-03T21:21:01.093Z,94278.38
2022-08-03T21:23:34.981Z,94269.19
2022-08-03T21:26:12.956Z,94276.03
2022-08-03T21:28:39.938Z,94267.25
2022-08-03T21:31:06.757Z,94271.44
2022-08-03T21:33:33.982Z,94265.34
2022-08-03T21:36:02.789Z,94268.41
2022-08-03T21:38:30.768Z,94268.00
2022-08-03T21:40:57.626Z,94272.16
2022-08-03T21:43:24.311Z,94259.91
2022-08-03T21:45:58.952Z,94262.16
2022-08-03T21:48:28.250Z,94262.03
2022-08-03T21:50:55.010Z,94269.56
2022-08-03T21:53:25.677Z,94262.66
2022-08-03T21:56:16.913Z,94258.75
2022-08-03T21:58:53.369Z,94257.22
2022-08-03T22:01:23.841Z,94267.41
2022-08-03T22:03:54.281Z,94268.88
2022-08-03T22:06:27.126Z,94263.50
2022-08-03T22:08:54.467Z,94266.50
2022-08-03T22:11:21.597Z,94267.56
2022-08-03T22:13:48.361Z,94269.44
2022-08-03T22:16:16.160Z,94270.94
2022-08-03T22:18:44.953Z,94278.09
2022-08-03T22:21:14.989Z,94273.50
2022-08-03T22:23:48.131Z,94271.97
2022-08-03T22:26:35.227Z,94269.31
2022-08-03T22:29:07.503Z,94278.81
2022-08-03T22:31:57.434Z,94283.41
2022-08-03T22:34:27.366Z,94281.91
2022-08-03T22:36:56.551Z,94284.94
2022-08-03T22:39:28.048Z,94278.75
2022-08-03T22:41:57.500Z,94289.31
2022-08-03T22:44:24.562Z,94291.53
2022-08-03T22:46:51.938Z,94291.44
2022-08-03T22:49:19.617Z,94290.53
2022-08-03T22:51:47.347Z,94297.28
2022-08-03T22:54:14.576Z,94293.44
2022-08-03T22:56:41.909Z,94291.97
2022-08-03T22:59:41.232Z,94296.97
2022-08-03T23:02:01.476Z,94292.88
2022-08-03T23:04:44.014Z,94299.34
2022-08-03T23:07:15.122Z,94297.84
2022-08-03T23:09:44.244Z,94297.94
2022-08-03T23:12:14.917Z,94292.97
2022-08-03T23:14:44.656Z,94298.28
2022-08-03T23:17:12.281Z,94295.28
2022-08-03T23:19:44.773Z,94302.09
2022-08-03T23:22:29.329Z,94304.41
2022-08-03T23:24:57.740Z,94300.63
2022-08-03T23:27:24.512Z,94294.94
2022-08-03T23:29:52.191Z,94292.69
2022-08-03T23:32:21.026Z,94295.00
2022-08-03T23:35:08.650Z,94300.34
2022-08-03T23:38:04.258Z,94296.19
2022-08-03T23:40:25.744Z,94296.19
2022-08-03T23:42:52.828Z,94302.53
2022-08-03T23:45:20.801Z,94299.06
2022-08-03T23:47:50.220Z,94300.88
2022-08-03T23:50:18.586Z,94307.97
2022-08-03T23:52:47.925Z,94304.13
2022-08-03T23:55:26.030Z,94301.75
2022-08-03T23:58:00.581Z,94307.81
